createdAt,value
2023-07-22T00:02:12.536Z,25.40
2023-07-22T00:04:41.059Z,25.40
2023-07-22T00:07:09.786Z,25.40
2023-07-22T00:09:38.449Z,25.40
2023-07-22T00:12:07.433Z,25.40
2023-07-22T00:14:42.692Z,25.30
2023-07-22T00:17:11.622Z,25.30
2023-07-22T00:19:41.008Z,25.20
2023-07-22T00:22:09.699Z,25.10
2023-07-22T00:24:38.229Z,25.00
2023-07-22T00:27:07.335Z,25.00
2023-07-22T00:29:35.966Z,25.00
2023-07-22T00:32:06.649Z,24.90
2023-07-22T00:34:35.439Z,24.90
2023-07-22T00:37:04.216Z,24.90
2023-07-22T00:39:32.686Z,25.00
2023-07-22T00:42:01.344Z,24.90
2023-07-22T00:44:30.008Z,24.90
2023-07-22T00:47:00.283Z,24.90
2023-07-22T00:49:30.281Z,24.90
2023-07-22T00:52:04.324Z,24.90
2023-07-22T00:54:33.866Z,24.90
2023-07-22T00:57:02.840Z,24.90
2023-07-22T00:59:35.079Z,24.90
2023-07-22T01:02:03.658Z,24.90
2023-07-22T01:04:35.990Z,24.90
2023-07-22T01:07:07.338Z,24.80
2023-07-22T01:09:39.874Z,24.80
2023-07-22T01:12:09.080Z,24.80
2023-07-22T01:14:43.349Z,24.70
2023-07-22T01:17:13.322Z,24.60
2023-07-22T01:19:41.943Z,24.60
2023-07-22T01:22:18.037Z,24.50
2023-07-22T01:24:47.003Z,24.50
2023-07-22T01:27:15.747Z,24.50
2023-07-22T01:29:44.252Z,24.50
2023-07-22T01:32:12.734Z,24.60
2023-07-22T01:34:41.374Z,24.50
2023-07-22T01:37:09.878Z,24.60
2023-07-22T01:39:38.161Z,24.50
2023-07-22T01:42:06.781Z,24.50
2023-07-22T01:44:35.216Z,24.50
2023-07-22T01:47:04.727Z,24.50
2023-07-22T01:49:33.127Z,24.50
2023-07-22T01:52:01.590Z,24.50
2023-07-22T01:54:30.388Z,24.40
2023-07-22T01:56:58.941Z,24.30
2023-07-22T01:59:27.960Z,24.20
2023-07-22T02:01:56.446Z,24.20
2023-07-22T02:04:25.042Z,24.20
2023-07-22T02:06:53.675Z,24.20
2023-07-22T02:09:22.192Z,24.20
2023-07-22T02:11:50.730Z,24.20
2023-07-22T02:14:19.309Z,24.20
2023-07-22T02:16:48.016Z,24.20
2023-07-22T02:19:17.196Z,24.20
2023-07-22T02:21:45.618Z,24.20
2023-07-22T02:24:16.912Z,24.10
2023-07-22T02:26:45.697Z,24.10
2023-07-22T02:29:14.367Z,24.20
2023-07-22T02:31:42.834Z,24.20
2023-07-22T02:34:11.155Z,24.10
2023-07-22T02:36:39.700Z,24.10
2023-07-22T02:39:08.143Z,24.10
2023-07-22T02:41:39.576Z,24.10
2023-07-22T02:44:08.321Z,24.10
2023-07-22T02:46:37.000Z,24.20
2023-07-22T02:49:05.639Z,24.20
2023-07-22T02:51:34.341Z,24.20
2023-07-22T02:54:03.167Z,24.10
2023-07-22T02:56:31.965Z,24.20
2023-07-22T02:59:00.500Z,24.20
2023-07-22T03:01:29.455Z,24.20
2023-07-22T03:03:58.134Z,24.30
2023-07-22T03:06:31.950Z,24.40
2023-07-22T03:09:01.308Z,24.40
2023-07-22T03:11:29.909Z,24.50
2023-07-22T03:13:58.400Z,24.50
2023-07-22T03:16:27.469Z,24.50
2023-07-22T03:18:56.224Z,24.50
2023-07-22T03:21:24.810Z,24.60
2023-07-22T03:23:53.417Z,24.60
2023-07-22T03:26:21.927Z,24.60
2023-07-22T03:28:50.391Z,24.60
2023-07-22T03:31:19.302Z,24.60
2023-07-22T03:33:47.855Z,24.70
2023-07-22T03:36:16.358Z,24.70
2023-07-22T03:38:44.836Z,24.70
2023-07-22T03:41:13.410Z,24.70
2023-07-22T03:43:47.615Z,24.70
2023-07-22T03:46:16.267Z,24.70
2023-07-22T03:48:45.012Z,24.70
2023-07-22T03:51:20.009Z,24.70
2023-07-22T03:53:50.030Z,24.70
2023-07-22T03:56:18.499Z,24.70
2023-07-22T03:58:46.969Z,24.70
2023-07-22T04:01:15.632Z,24.70
2023-07-22T04:03:44.079Z,24.70
2023-07-22T04:06:12.871Z,24.70
2023-07-22T04:08:41.450Z,24.70
2023-07-22T04:11:09.874Z,24.70
2023-07-22T04:13:38.102Z,24.70
2023-07-22T04:16:06.689Z,24.70
2023-07-22T04:18:36.796Z,24.70
2023-07-22T04:21:05.333Z,24.70
2023-07-22T04:23:33.877Z,24.70
2023-07-22T04:26:04.881Z,24.70
2023-07-22T04:28:33.555Z,24.70
2023-07-22T04:31:02.314Z,24.60
2023-07-22T04:33:30.840Z,24.70
2023-07-22T04:36:01.743Z,24.70
2023-07-22T04:38:30.172Z,24.70
2023-07-22T04:40:59.213Z,24.70
2023-07-22T04:43:27.892Z,24.70
2023-07-22T04:45:56.286Z,24.70
2023-07-22T04:48:24.626Z,24.70
2023-07-22T04:50:53.438Z,24.70
2023-07-22T04:53:23.042Z,24.70
2023-07-22T04:55:51.409Z,24.60
2023-07-22T04:58:20.107Z,24.60
2023-07-22T05:00:52.760Z,24.70
2023-07-22T05:03:23.180Z,24.70
2023-07-22T05:05:51.837Z,24.70
2023-07-22T05:08:21.508Z,24.70
2023-07-22T05:10:49.889Z,24.70
2023-07-22T05:13:20.577Z,24.60
2023-07-22T05:15:49.381Z,24.60
2023-07-22T05:18:17.906Z,24.60
2023-07-22T05:20:46.457Z,24.60
2023-07-22T05:23:14.974Z,24.60
2023-07-22T05:25:43.395Z,24.60
2023-07-22T05:28:12.515Z,24.60
2023-07-22T05:30:43.503Z,24.60
2023-07-22T05:33:12.284Z,24.60
2023-07-22T05:35:40.650Z,24.60
2023-07-22T05:38:09.361Z,24.60
2023-07-22T05:40:38.204Z,24.60
2023-07-22T05:43:06.731Z,24.50
2023-07-22T05:45:35.189Z,24.50
2023-07-22T05:48:03.725Z,24.50
2023-07-22T05:50:32.286Z,24.50
2023-07-22T05:53:01.024Z,24.50
2023-07-22T05:55:29.537Z,24.50
2023-07-22T05:57:58.792Z,24.40
2023-07-22T06:00:27.378Z,24.50
2023-07-22T06:02:55.875Z,24.50
2023-07-22T06:05:24.581Z,24.40
2023-07-22T06:07:54.889Z,24.50
2023-07-22T06:10:24.816Z,24.40
2023-07-22T06:12:53.634Z,24.50
2023-07-22T06:15:24.551Z,24.40
2023-07-22T06:17:56.442Z,24.40
2023-07-22T06:20:25.300Z,24.40
2023-07-22T06:22:53.938Z,24.40
2023-07-22T06:25:22.512Z,24.30
2023-07-22T06:27:51.107Z,24.40
2023-07-22T06:30:19.729Z,24.40
2023-07-22T06:32:48.714Z,24.30
2023-07-22T06:35:17.487Z,24.30
2023-07-22T06:37:45.950Z,24.40
2023-07-22T06:40:14.503Z,24.30
2023-07-22T06:42:43.036Z,24.30
2023-07-22T06:45:11.729Z,24.20
2023-07-22T06:47:40.294Z,24.20
2023-07-22T06:50:09.346Z,24.20
2023-07-22T06:52:37.894Z,24.20
2023-07-22T06:55:07.498Z,24.20
2023-07-22T06:57:36.277Z,24.20
2023-07-22T07:01:25.303Z,24.20
2023-07-22T07:03:53.986Z,24.20
2023-07-22T07:06:22.549Z,24.20
2023-07-22T07:08:51.169Z,24.20
2023-07-22T07:11:21.457Z,24.20
2023-07-22T07:13:50.136Z,24.20
2023-07-22T07:16:30.688Z,24.20
2023-07-22T07:19:01.078Z,24.20
2023-07-22T07:21:30.209Z,24.20
2023-07-22T07:23:59.163Z,24.20
2023-07-22T07:26:28.785Z,24.20
2023-07-22T07:29:04.902Z,24.20
2023-07-22T07:31:33.926Z,24.30
2023-07-22T07:34:02.821Z,24.30
2023-07-22T07:36:31.532Z,24.30
2023-07-22T07:39:00.056Z,24.30
2023-07-22T07:41:29.774Z,24.30
2023-07-22T07:43:58.237Z,24.30
2023-07-22T07:46:30.129Z,24.40
2023-07-22T07:49:00.968Z,24.30
2023-07-22T07:51:31.104Z,24.40
2023-07-22T07:54:10.625Z,24.30
2023-07-22T07:56:39.314Z,24.30
2023-07-22T07:59:08.138Z,24.30
2023-07-22T08:01:36.538Z,24.20
2023-07-22T08:04:05.320Z,24.20
2023-07-22T08:06:33.944Z,24.30
2023-07-22T08:09:02.307Z,24.20
2023-07-22T08:11:30.881Z,24.20
2023-07-22T08:13:59.406Z,24.20
2023-07-22T08:16:28.223Z,24.20
2023-07-22T08:18:57.241Z,24.20
2023-07-22T08:21:25.879Z,24.20
2023-07-22T08:23:54.299Z,24.10
2023-07-22T08:26:23.173Z,24.20
2023-07-22T08:28:51.788Z,24.10
2023-07-22T08:31:20.336Z,24.10
2023-07-22T08:33:48.856Z,24.10
2023-07-22T08:36:17.456Z,24.00
2023-07-22T08:38:46.079Z,24.00
2023-07-22T08:41:17.655Z,24.00
2023-07-22T08:43:47.801Z,24.00
2023-07-22T08:46:19.194Z,24.00
2023-07-22T08:48:50.947Z,24.00
2023-07-22T08:51:20.547Z,24.10
2023-07-22T08:54:00.826Z,24.10
2023-07-22T08:56:39.674Z,24.10
2023-07-22T08:59:08.578Z,24.10
2023-07-22T09:01:37.791Z,24.10
2023-07-22T09:04:06.875Z,24.10
2023-07-22T09:06:37.234Z,24.10
2023-07-22T09:09:06.048Z,24.10
2023-07-22T09:11:35.299Z,24.10
2023-07-22T09:14:05.006Z,24.10
2023-07-22T09:16:35.203Z,24.10
2023-07-22T09:19:05.858Z,24.20
2023-07-22T09:21:34.833Z,24.20
2023-07-22T09:24:24.782Z,24.20
2023-07-22T09:26:55.728Z,24.20
2023-07-22T09:29:42.311Z,24.20
2023-07-22T09:32:11.341Z,24.20
2023-07-22T09:34:55.429Z,24.20
2023-07-22T09:37:24.070Z,24.30
2023-07-22T09:39:58.479Z,24.30
2023-07-22T09:42:56.615Z,24.30
2023-07-22T09:45:26.828Z,24.30
2023-07-22T09:47:57.874Z,24.30
2023-07-22T09:50:28.065Z,24.30
2023-07-22T09:52:58.816Z,24.40
2023-07-22T09:55:32.786Z,24.40
2023-07-22T09:58:06.707Z,24.50
2023-07-22T10:00:36.809Z,24.50
2023-07-22T10:03:09.837Z,24.50
2023-07-22T10:05:40.644Z,24.50
2023-07-22T10:08:10.255Z,24.50
2023-07-22T10:10:41.084Z,24.40
2023-07-22T10:13:10.065Z,24.40
2023-07-22T10:15:39.390Z,24.50
2023-07-22T10:18:08.044Z,24.40
2023-07-22T10:20:43.799Z,24.40
2023-07-22T10:23:15.089Z,24.40
2023-07-22T10:25:45.310Z,24.40
2023-07-22T10:28:18.500Z,24.40
2023-07-22T10:30:49.193Z,24.40
2023-07-22T10:33:29.524Z,24.50
2023-07-22T10:36:21.839Z,24.50
2023-07-22T10:39:05.496Z,24.60
2023-07-22T10:41:35.012Z,24.50
2023-07-22T10:44:03.923Z,24.50
2023-07-22T10:46:43.852Z,24.60
2023-07-22T10:49:17.902Z,24.60
2023-07-22T10:51:51.181Z,24.60
2023-07-22T10:54:35.099Z,24.60
2023-07-22T10:57:25.380Z,24.70
2023-07-22T10:59:58.307Z,24.60
2023-07-22T11:02:31.428Z,24.60
2023-07-22T11:05:01.304Z,24.60
2023-07-22T11:07:46.052Z,24.50
2023-07-22T11:10:20.393Z,24.50
2023-07-22T11:12:50.609Z,24.50
2023-07-22T11:15:19.497Z,24.50
2023-07-22T11:17:48.551Z,24.40
2023-07-22T11:20:17.294Z,24.50
2023-07-22T11:22:46.367Z,24.50
2023-07-22T11:25:21.259Z,24.50
2023-07-22T11:27:50.383Z,24.50
2023-07-22T11:30:19.473Z,24.50
2023-07-22T11:32:50.826Z,24.50
2023-07-22T11:35:22.517Z,24.50
2023-07-22T11:38:02.100Z,24.50
2023-07-22T11:40:36.222Z,24.50
2023-07-22T11:43:05.183Z,24.60
2023-07-22T11:45:35.384Z,24.50
2023-07-22T11:48:13.107Z,24.60
2023-07-22T11:50:43.297Z,24.60
2023-07-22T11:53:16.285Z,24.60
2023-07-22T11:55:45.638Z,24.60
2023-07-22T11:58:14.328Z,24.50
2023-07-22T12:01:00.340Z,24.50
2023-07-22T12:05:23.842Z,24.50
2023-07-22T12:07:52.809Z,24.50
2023-07-22T12:10:21.480Z,24.50
2023-07-22T12:12:50.056Z,24.50
2023-07-22T12:15:21.444Z,24.50
2023-07-22T12:17:55.226Z,24.50
2023-07-22T12:20:27.887Z,24.50
2023-07-22T12:22:57.888Z,24.50
2023-07-22T12:25:26.940Z,24.50
2023-07-22T12:27:55.544Z,24.50
2023-07-22T12:30:24.111Z,24.50
2023-07-22T12:32:52.688Z,24.60
2023-07-22T12:35:21.546Z,24.60
2023-07-22T12:37:56.472Z,24.60
2023-07-22T12:40:25.076Z,24.50
2023-07-22T12:42:53.487Z,24.50
2023-07-22T12:45:22.139Z,24.50
2023-07-22T12:47:50.684Z,24.50
2023-07-22T12:50:19.255Z,24.50
2023-07-22T12:52:47.818Z,24.40
2023-07-22T12:55:18.166Z,24.40
2023-07-22T12:57:46.750Z,24.40
2023-07-22T13:00:15.655Z,24.50
2023-07-22T13:02:44.321Z,24.50
2023-07-22T13:05:13.012Z,24.50
2023-07-22T13:07:41.935Z,24.50
2023-07-22T13:10:19.877Z,24.50
2023-07-22T13:13:06.870Z,24.40
2023-07-22T13:15:35.630Z,24.50
2023-07-22T13:18:04.737Z,24.40
2023-07-22T13:20:33.602Z,24.40
2023-07-22T13:23:02.139Z,24.50
2023-07-22T13:25:32.086Z,24.60
2023-07-22T13:28:00.545Z,24.60
2023-07-22T13:30:29.316Z,24.70
2023-07-22T13:32:58.127Z,24.70
2023-07-22T13:35:26.788Z,24.80
2023-07-22T13:37:59.335Z,24.80
2023-07-22T13:40:28.040Z,24.80
2023-07-22T13:42:56.788Z,24.90
2023-07-22T13:45:25.364Z,24.90
2023-07-22T13:47:54.384Z,25.00
2023-07-22T13:50:23.194Z,25.00
2023-07-22T13:52:52.148Z,25.00
2023-07-22T13:55:20.647Z,25.00
2023-07-22T13:57:49.101Z,25.00
2023-07-22T14:00:17.876Z,25.00
2023-07-22T14:02:46.570Z,25.10
2023-07-22T14:05:16.800Z,25.10
2023-07-22T14:07:45.367Z,25.20
2023-07-22T14:10:13.864Z,25.30
2023-07-22T14:12:42.334Z,25.30
2023-07-22T14:15:11.155Z,25.40
2023-07-22T14:17:40.824Z,25.30
2023-07-22T14:20:09.963Z,25.40
2023-07-22T14:22:38.494Z,25.40
2023-07-22T14:25:07.338Z,25.50
2023-07-22T14:27:35.855Z,25.60
2023-07-22T14:30:04.650Z,25.60
2023-07-22T14:32:33.312Z,25.70
2023-07-22T14:35:02.055Z,25.90
2023-07-22T14:37:30.502Z,26.00
2023-07-22T14:39:59.117Z,26.00
2023-07-22T14:42:27.755Z,26.10
2023-07-22T14:44:56.266Z,26.10
2023-07-22T14:47:24.719Z,26.10
2023-07-22T14:49:53.681Z,26.20
2023-07-22T14:52:22.720Z,26.20
2023-07-22T14:54:51.700Z,26.30
2023-07-22T14:57:20.332Z,26.30
2023-07-22T14:59:48.954Z,26.30
2023-07-22T15:02:17.399Z,26.40
2023-07-22T15:04:46.277Z,26.40
2023-07-22T15:07:14.742Z,26.40
2023-07-22T15:09:43.254Z,26.40
2023-07-22T15:12:11.736Z,26.40
2023-07-22T15:14:40.204Z,26.40
2023-07-22T15:17:10.316Z,26.50
2023-07-22T15:19:41.606Z,26.40
2023-07-22T15:22:10.258Z,26.40
2023-07-22T15:24:38.763Z,26.40
2023-07-22T15:27:07.573Z,26.50
2023-07-22T15:29:36.115Z,26.50
2023-07-22T15:32:04.739Z,26.50
2023-07-22T15:34:33.329Z,26.50
2023-07-22T15:37:01.629Z,26.50
2023-07-22T15:39:30.067Z,26.40
2023-07-22T15:41:58.649Z,26.50
2023-07-22T15:44:26.982Z,26.50
2023-07-22T15:46:56.143Z,26.40
2023-07-22T15:49:24.833Z,26.40
2023-07-22T15:51:54.030Z,26.50
2023-07-22T15:54:22.577Z,26.50
2023-07-22T15:56:51.092Z,26.50
2023-07-22T15:59:19.595Z,26.50
2023-07-22T16:01:48.000Z,26.50
2023-07-22T16:04:16.659Z,26.50
2023-07-22T16:06:45.119Z,26.40
2023-07-22T16:09:13.569Z,26.40
2023-07-22T16:11:42.200Z,26.40
2023-07-22T16:14:10.581Z,26.40
2023-07-22T16:16:39.549Z,26.30
2023-07-22T16:19:08.061Z,26.30
2023-07-22T16:21:36.566Z,26.30
2023-07-22T16:24:05.357Z,26.30
2023-07-22T16:26:33.761Z,26.30
2023-07-22T16:29:03.771Z,26.30
2023-07-22T16:31:32.402Z,26.30
2023-07-22T16:34:01.063Z,26.30
2023-07-22T16:36:30.955Z,26.20
2023-07-22T16:38:59.637Z,26.30
2023-07-22T16:44:40.442Z,26.20
2023-07-22T16:47:08.933Z,26.20
2023-07-22T16:49:37.364Z,26.20
2023-07-22T16:52:06.395Z,26.20
2023-07-22T16:54:34.851Z,26.20
2023-07-22T16:57:03.508Z,26.10
2023-07-22T16:59:31.880Z,26.10
2023-07-22T17:02:00.711Z,26.10
2023-07-22T17:04:31.151Z,26.00
2023-07-22T17:07:02.347Z,26.00
2023-07-22T17:09:31.566Z,26.00
2023-07-22T17:12:00.318Z,25.90
2023-07-22T17:14:28.790Z,25.90
2023-07-22T17:16:57.430Z,25.90
2023-07-22T17:19:25.884Z,25.90
2023-07-22T17:21:54.687Z,25.80
2023-07-22T17:24:23.046Z,25.80
2023-07-22T17:26:51.766Z,25.80
2023-07-22T17:29:20.426Z,25.80
2023-07-22T17:31:48.874Z,25.80
2023-07-22T17:34:17.473Z,25.80
2023-07-22T17:36:46.001Z,25.80
2023-07-22T17:39:14.709Z,25.80
2023-07-22T17:41:43.254Z,25.80
2023-07-22T17:44:12.212Z,25.70
2023-07-22T17:46:40.826Z,25.70
2023-07-22T17:49:09.319Z,25.80
2023-07-22T17:51:37.717Z,25.80
2023-07-22T17:54:06.351Z,25.70
2023-07-22T17:56:34.829Z,25.80
2023-07-22T17:59:04.438Z,25.80
2023-07-22T18:01:33.063Z,25.70
2023-07-22T18:04:01.595Z,25.70
2023-07-22T18:06:30.113Z,25.70
2023-07-22T18:08:58.413Z,25.70
2023-07-22T18:11:27.302Z,25.80
2023-07-22T18:13:56.249Z,25.80
2023-07-22T18:16:25.121Z,25.80
2023-07-22T18:18:53.595Z,25.70
2023-07-22T18:21:22.233Z,25.70
2023-07-22T18:23:50.687Z,25.80
2023-07-22T18:26:19.425Z,25.80
2023-07-22T18:28:47.823Z,25.70
2023-07-22T18:31:16.369Z,25.70
2023-07-22T18:33:44.860Z,25.70
2023-07-22T18:36:13.480Z,25.70
2023-07-22T18:38:41.983Z,25.70
2023-07-22T18:41:10.837Z,25.70
2023-07-22T18:43:39.370Z,25.70
2023-07-22T18:46:15.451Z,25.60
2023-07-22T18:48:44.181Z,25.70
2023-07-22T18:51:13.067Z,25.70
2023-07-22T18:53:41.774Z,25.60
2023-07-22T18:56:10.425Z,25.60
2023-07-22T18:58:43.132Z,25.60
2023-07-22T19:01:13.086Z,25.60
2023-07-22T19:03:42.289Z,25.60
2023-07-22T19:06:10.832Z,25.60
2023-07-22T19:08:39.660Z,25.50
2023-07-22T19:11:09.726Z,25.50
2023-07-22T19:13:38.470Z,25.50
2023-07-22T19:16:07.494Z,25.50
2023-07-22T19:18:37.762Z,25.50
2023-07-22T19:21:07.274Z,25.40
2023-07-22T19:23:35.920Z,25.40
2023-07-22T19:26:07.116Z,25.40
2023-07-22T19:28:36.355Z,25.40
2023-07-22T19:31:05.076Z,25.40
2023-07-22T19:33:33.778Z,25.40
2023-07-22T19:36:06.234Z,25.40
2023-07-22T19:38:35.757Z,25.40
2023-07-22T19:41:05.523Z,25.40
2023-07-22T19:45:40.623Z,25.30
2023-07-22T19:48:09.407Z,25.30
2023-07-22T19:50:38.029Z,25.30
2023-07-22T19:53:06.566Z,25.30
2023-07-22T19:55:35.241Z,25.30
2023-07-22T19:58:03.887Z,25.30
2023-07-22T20:00:32.551Z,25.20
2023-07-22T20:03:04.951Z,25.20
2023-07-22T20:08:18.411Z,25.20
2023-07-22T20:10:49.750Z,25.20
2023-07-22T20:13:19.328Z,25.20
2023-07-22T20:15:55.753Z,25.10
2023-07-22T20:18:27.094Z,25.10
2023-07-22T20:20:57.944Z,25.10
2023-07-22T20:23:26.895Z,25.10
2023-07-22T20:25:56.972Z,25.10
2023-07-22T20:28:25.936Z,25.10
2023-07-22T20:30:58.199Z,25.10
2023-07-22T20:33:27.230Z,25.10
2023-07-22T20:35:56.992Z,25.10
2023-07-22T20:38:26.840Z,25.10
2023-07-22T20:40:55.483Z,25.00
2023-07-22T20:43:25.347Z,25.00
2023-07-22T20:45:54.340Z,25.10
2023-07-22T20:48:23.069Z,25.10
2023-07-22T20:50:56.056Z,25.00
2023-07-22T20:53:26.182Z,25.00
2023-07-22T20:55:54.852Z,25.00
2023-07-22T20:58:23.512Z,25.00
2023-07-22T21:00:54.238Z,25.00
2023-07-22T21:03:23.735Z,25.00
2023-07-22T21:06:03.269Z,25.00
2023-07-22T21:08:36.194Z,25.10
2023-07-22T21:11:05.030Z,25.00
2023-07-22T21:13:33.884Z,25.00
2023-07-22T21:16:02.729Z,25.00
2023-07-22T21:18:31.502Z,25.00
2023-07-22T21:20:59.982Z,25.10
2023-07-22T21:23:28.385Z,25.10
2023-07-22T21:25:57.906Z,25.10
2023-07-22T21:28:27.397Z,25.10
2023-07-22T21:30:56.130Z,25.10
2023-07-22T21:33:24.819Z,25.10
2023-07-22T21:35:53.959Z,25.10
2023-07-22T21:38:22.842Z,25.20
2023-07-22T21:40:55.886Z,25.10
2023-07-22T21:49:38.446Z,25.10
2023-07-22T21:52:07.332Z,25.10
2023-07-22T21:54:36.059Z,25.10
2023-07-22T21:57:04.517Z,25.20
2023-07-22T21:59:33.059Z,25.10
2023-07-22T22:02:01.535Z,25.20
2023-07-22T22:04:30.009Z,25.20
2023-07-22T22:06:58.690Z,25.20
2023-07-22T22:09:27.541Z,25.20
2023-07-22T22:11:56.809Z,25.20
2023-07-22T22:14:25.361Z,25.20
2023-07-22T22:16:53.981Z,25.20
2023-07-22T22:19:24.299Z,25.20
2023-07-22T22:21:52.869Z,25.20
2023-07-22T22:24:21.532Z,25.30
2023-07-22T22:26:50.119Z,25.20
2023-07-22T22:29:18.633Z,25.30
2023-07-22T22:31:47.072Z,25.30
2023-07-22T22:34:15.741Z,25.30
2023-07-22T22:36:44.158Z,25.30
2023-07-22T22:39:12.588Z,25.30
2023-07-22T22:41:41.279Z,25.30
2023-07-22T22:44:09.976Z,25.30
2023-07-22T22:46:41.012Z,25.30
2023-07-22T22:49:10.994Z,25.30
2023-07-22T22:51:40.024Z,25.30
2023-07-22T22:54:08.931Z,25.30
2023-07-22T22:56:38.459Z,25.30
2023-07-22T22:59:07.055Z,25.30
2023-07-22T23:01:35.568Z,25.30
2023-07-22T23:04:04.232Z,25.30
2023-07-22T23:06:32.773Z,25.30
2023-07-22T23:09:01.289Z,25.30
2023-07-22T23:11:29.914Z,25.30
2023-07-22T23:13:59.567Z,25.40
2023-07-22T23:16:28.218Z,25.40
2023-07-22T23:18:56.665Z,25.30
2023-07-22T23:21:25.397Z,25.30
2023-07-22T23:23:53.863Z,25.40
2023-07-22T23:26:23.142Z,25.30
2023-07-22T23:28:51.694Z,25.30
2023-07-22T23:31:20.246Z,25.30
2023-07-22T23:33:54.938Z,25.30
2023-07-22T23:36:23.464Z,25.30
2023-07-22T23:38:53.878Z,25.30
2023-07-22T23:41:23.370Z,25.30
2023-07-22T23:43:51.772Z,25.30
2023-07-22T23:46:20.513Z,25.30
2023-07-22T23:48:49.199Z,25.30
2023-07-22T23:51:17.806Z,25.30
2023-07-22T23:53:46.241Z,25.30
2023-07-22T23:56:14.928Z,25.40
2023-07-22T23:58:43.485Z,25.40
